Time;durP1;ratioP1;P1;durP2;ratioP2;P2;SDS_P1;SDS_P2;PMS_P1;PMS_P2;Temp;Humidity;BMP_temperature;BMP_pressure;BME280_temperature;BME280_humidity;BME280_pressure;Samples;Min_cycle;Max_cycle;Signal;HPM_P1;HPM_P2
2022/05/31 00:01:55;;;;;;;3.20;2.90;;;;;;;;;;4972995;28;20537;-77
2022/05/31 00:04:22;;;;;;;3.33;3.00;;;;;;;;;;4956495;28;20442;-77
2022/05/31 00:06:48;;;;;;;3.33;2.90;;;;;;;;;;4957028;28;20801;-77
2022/05/31 00:09:16;;;;;;;2.80;2.60;;;;;;;;;;4973573;28;20449;-77
2022/05/31 00:11:43;;;;;;;2.50;2.20;;;;;;;;;;4972382;28;20474;-77
2022/05/31 00:14:10;;;;;;;3.67;3.37;;;;;;;;;;4956930;28;20457;-78
2022/05/31 00:16:36;;;;;;;16.23;5.50;;;;;;;;;;4956386;28;20537;-78
2022/05/31 00:19:03;;;;;;;3.50;3.10;;;;;;;;;;4954428;28;20469;-77
2022/05/31 00:21:38;;;;;;;3.70;2.93;;;;;;;;;;4955783;28;20529;-77
2022/05/31 00:24:06;;;;;;;3.33;2.70;;;;;;;;;;4956047;28;20453;-77
2022/05/31 00:26:33;;;;;;;2.77;2.57;;;;;;;;;;4956564;28;20447;-77
2022/05/31 00:29:00;;;;;;;2.97;2.77;;;;;;;;;;4954814;28;20473;-77
2022/05/31 00:31:26;;;;;;;3.20;2.87;;;;;;;;;;4954048;28;20739;-77
2022/05/31 00:33:53;;;;;;;3.50;3.00;;;;;;;;;;4956052;28;20458;-77
2022/05/31 00:36:20;;;;;;;2.80;2.20;;;;;;;;;;4955661;28;20442;-77
2022/05/31 00:38:47;;;;;;;2.87;2.20;;;;;;;;;;4938766;28;20462;-77
2022/05/31 00:44:03;;;;;;;2.83;2.53;;;;;;;;;;4950099;28;20473;-77
2022/05/31 00:46:37;;;;;;;3.13;2.50;;;;;;;;;;4972879;28;20482;-77
2022/05/31 00:49:06;;;;;;;4.20;2.67;;;;;;;;;;4955684;28;20513;-77
2022/05/31 00:51:36;;;;;;;3.57;2.83;;;;;;;;;;4971519;28;20942;-77
2022/05/31 00:54:04;;;;;;;3.10;2.63;;;;;;;;;;4972919;28;20458;-77
2022/05/31 00:56:31;;;;;;;2.60;2.40;;;;;;;;;;4971906;28;20446;-77
2022/05/31 00:59:00;;;;;;;3.07;2.47;;;;;;;;;;4955183;28;20462;-77
2022/05/31 01:01:29;;;;;;;3.00;2.70;;;;;;;;;;4971174;28;20454;-77
2022/05/31 01:03:56;;;;;;;3.10;2.80;;;;;;;;;;4972521;28;20485;-77
2022/05/31 01:06:23;;;;;;;2.80;2.53;;;;;;;;;;4971170;28;20938;-77
2022/05/31 01:08:54;;;;;;;4.70;2.80;;;;;;;;;;4969692;28;20473;-77
2022/05/31 01:11:35;;;;;;;3.20;2.90;;;;;;;;;;4972881;28;20445;-77
2022/05/31 01:14:20;;;;;;;3.20;2.80;;;;;;;;;;4972685;28;20434;-77
2022/05/31 01:17:16;;;;;;;3.03;2.70;;;;;;;;;;4942576;28;20440;-77
2022/05/31 01:20:05;;;;;;;3.07;2.47;;;;;;;;;;4976341;28;20443;-77
2022/05/31 01:22:38;;;;;;;3.80;3.43;;;;;;;;;;4952749;29;21121;-77
2022/05/31 01:25:12;;;;;;;4.77;3.00;;;;;;;;;;4969838;28;20455;-77
2022/05/31 01:27:41;;;;;;;3.90;3.20;;;;;;;;;;4976476;28;20445;-77
2022/05/31 01:30:09;;;;;;;3.63;2.77;;;;;;;;;;4971364;28;20537;-77
2022/05/31 01:32:38;;;;;;;4.03;3.63;;;;;;;;;;4971533;28;20565;-77
2022/05/31 01:35:09;;;;;;;3.27;2.97;;;;;;;;;;4971422;28;20454;-77
2022/05/31 01:37:45;;;;;;;3.07;2.80;;;;;;;;;;4954771;28;20472;-77
2022/05/31 01:40:13;;;;;;;3.77;2.83;;;;;;;;;;4954716;28;20481;-77
2022/05/31 01:42:42;;;;;;;5.30;2.63;;;;;;;;;;4971236;28;20729;-77
2022/05/31 01:45:11;;;;;;;3.47;2.93;;;;;;;;;;4972382;28;20446;-77
2022/05/31 01:47:37;;;;;;;3.33;3.03;;;;;;;;;;4969135;28;20918;-77
2022/05/31 01:50:04;;;;;;;3.47;3.00;;;;;;;;;;4971779;28;20481;-77
2022/05/31 01:52:36;;;;;;;3.43;3.13;;;;;;;;;;4954775;28;20470;-77
2022/05/31 01:55:05;;;;;;;3.50;3.20;;;;;;;;;;4954440;28;20837;-77
2022/05/31 01:57:32;;;;;;;3.20;2.90;;;;;;;;;;4972150;28;20784;-77
2022/05/31 02:00:01;;;;;;;4.00;3.30;;;;;;;;;;4942515;28;20459;-77
2022/05/31 02:02:28;;;;;;;3.47;3.17;;;;;;;;;;4958418;28;20468;-77
2022/05/31 02:04:55;;;;;;;3.03;2.73;;;;;;;;;;4958343;28;20458;-77
2022/05/31 02:07:23;;;;;;;4.10;3.30;;;;;;;;;;4941950;28;20488;-77
2022/05/31 02:09:56;;;;;;;4.57;3.40;;;;;;;;;;4950369;29;20447;-77
2022/05/31 02:12:26;;;;;;;4.57;3.40;;;;;;;;;;4948480;28;20473;-77
2022/05/31 02:15:23;;;;;;;4.50;3.70;;;;;;;;;;4941893;28;20923;-77
2022/05/31 02:19:15;;;;;;;4.67;3.53;;;;;;;;;;4880823;29;20450;-77
2022/05/31 02:21:35;;;;;;;3.60;3.30;;;;;;;;;;4873636;29;20442;-77
2022/05/31 02:24:06;;;;;;;3.63;3.10;;;;;;;;;;4930720;28;20455;-77
2022/05/31 02:26:35;;;;;;;3.23;2.93;;;;;;;;;;4954327;28;20443;-77
2022/05/31 02:29:02;;;;;;;3.20;2.83;;;;;;;;;;4964087;28;20443;-77
2022/05/31 02:31:29;;;;;;;3.70;3.03;;;;;;;;;;4948863;28;20443;-77
2022/05/31 02:33:57;;;;;;;3.37;3.03;;;;;;;;;;4958167;28;20485;-77
2022/05/31 02:36:24;;;;;;;3.97;3.43;;;;;;;;;;4936576;28;20467;-77
2022/05/31 02:38:51;;;;;;;3.07;2.77;;;;;;;;;;4951912;28;20462;-77
2022/05/31 02:41:22;;;;;;;2.83;2.60;;;;;;;;;;4933173;28;20458;-77
2022/05/31 02:43:55;;;;;;;3.80;2.97;;;;;;;;;;4948527;28;20460;-77
2022/05/31 02:46:25;;;;;;;3.17;2.87;;;;;;;;;;4956056;28;20453;-77
2022/05/31 02:48:52;;;;;;;3.13;2.93;;;;;;;;;;4934062;28;20468;-77
2022/05/31 02:51:20;;;;;;;3.77;3.47;;;;;;;;;;4971372;28;20944;-77
2022/05/31 02:53:49;;;;;;;4.43;3.50;;;;;;;;;;4949878;28;20482;-77
2022/05/31 02:56:26;;;;;;;3.70;3.07;;;;;;;;;;4949688;28;20455;-77
2022/05/31 02:59:24;;;;;;;3.37;3.07;;;;;;;;;;4954740;28;20438;-77
2022/05/31 03:02:18;;;;;;;4.40;3.20;;;;;;;;;;4961862;28;20542;-77
2022/05/31 03:05:24;;;;;;;3.73;3.23;;;;;;;;;;4951398;29;20450;-77
2022/05/31 03:08:03;;;;;;;3.23;2.93;;;;;;;;;;4943246;29;20435;-77
2022/05/31 03:10:37;;;;;;;4.20;3.17;;;;;;;;;;4938818;28;20481;-77
2022/05/31 03:13:04;;;;;;;5.17;3.03;;;;;;;;;;4966373;28;20475;-77
2022/05/31 03:15:32;;;;;;;3.17;2.87;;;;;;;;;;4966925;28;20797;-77
2022/05/31 03:18:02;;;;;;;4.00;3.17;;;;;;;;;;4963265;28;20450;-77
2022/05/31 03:20:31;;;;;;;3.60;3.30;;;;;;;;;;4968215;28;20455;-77
2022/05/31 03:23:01;;;;;;;4.47;3.80;;;;;;;;;;4963463;28;20942;-77
2022/05/31 03:25:28;;;;;;;3.63;3.33;;;;;;;;;;4965516;28;20450;-77
2022/05/31 03:28:02;;;;;;;4.90;3.63;;;;;;;;;;4961905;28;20855;-77
2022/05/31 03:30:29;;;;;;;3.53;3.23;;;;;;;;;;4964183;28;20791;-77
2022/05/31 03:32:58;;;;;;;3.43;3.13;;;;;;;;;;4950070;28;20816;-77
2022/05/31 03:35:25;;;;;;;6.50;3.17;;;;;;;;;;4967824;28;20491;-77
2022/05/31 03:37:55;;;;;;;3.80;3.43;;;;;;;;;;4964766;28;20483;-77
2022/05/31 03:40:57;;;;;;;4.67;3.77;;;;;;;;;;4960365;28;20968;-77
2022/05/31 03:43:28;;;;;;;3.80;3.40;;;;;;;;;;4962733;28;20438;-77
2022/05/31 03:46:14;;;;;;;3.93;3.00;;;;;;;;;;4966615;28;20472;-77
2022/05/31 03:49:02;;;;;;;3.63;3.30;;;;;;;;;;4964207;28;20515;-77
2022/05/31 03:51:43;;;;;;;4.70;3.80;;;;;;;;;;4948610;28;20435;-77
2022/05/31 03:54:20;;;;;;;4.00;3.53;;;;;;;;;;4929514;28;20470;-77
2022/05/31 03:57:05;;;;;;;3.90;3.43;;;;;;;;;;4978934;28;20634;-77
2022/05/31 03:59:35;;;;;;;2.90;2.70;;;;;;;;;;4965821;28;20533;-77
2022/05/31 04:02:02;;;;;;;3.83;3.53;;;;;;;;;;4962446;28;20846;-77
2022/05/31 04:04:30;;;;;;;3.97;3.20;;;;;;;;;;4949132;28;20479;-77
2022/05/31 04:07:00;;;;;;;3.30;2.80;;;;;;;;;;4945336;28;20973;-77
2022/05/31 04:09:28;;;;;;;4.47;3.57;;;;;;;;;;4948738;28;20444;-77
2022/05/31 04:11:57;;;;;;;4.00;3.50;;;;;;;;;;4967620;28;20539;-77
2022/05/31 04:14:44;;;;;;;6.23;3.70;;;;;;;;;;4951694;28;20491;-77
2022/05/31 04:17:11;;;;;;;3.43;3.13;;;;;;;;;;4955420;28;20481;-77
2022/05/31 04:19:39;;;;;;;5.27;3.80;;;;;;;;;;4955903;28;20458;-77
2022/05/31 04:22:06;;;;;;;3.70;3.30;;;;;;;;;;4955236;28;20881;-77
2022/05/31 04:24:33;;;;;;;3.87;3.30;;;;;;;;;;4939093;28;20948;-77
2022/05/31 04:27:19;;;;;;;4.03;3.50;;;;;;;;;;4953666;29;20412;-77
2022/05/31 04:30:04;;;;;;;3.93;3.53;;;;;;;;;;4936155;29;20448;-77
2022/05/31 04:32:53;;;;;;;3.50;3.20;;;;;;;;;;4958120;28;20822;-77
2022/05/31 04:35:31;;;;;;;3.70;3.33;;;;;;;;;;4956138;28;20537;-77
2022/05/31 04:37:57;;;;;;;5.23;3.73;;;;;;;;;;4955710;28;20438;-77
2022/05/31 04:40:36;;;;;;;4.87;3.90;;;;;;;;;;4955178;28;20450;-77
2022/05/31 04:43:20;;;;;;;5.00;4.07;;;;;;;;;;4972361;28;20913;-77
2022/05/31 04:46:11;;;;;;;4.47;3.57;;;;;;;;;;4972908;28;20427;-77
2022/05/31 04:48:46;;;;;;;4.67;3.13;;;;;;;;;;4954364;28;21195;-77
2022/05/31 04:51:15;;;;;;;3.93;3.30;;;;;;;;;;4954056;28;20513;-77
2022/05/31 04:53:51;;;;;;;3.80;3.50;;;;;;;;;;4954599;28;20482;-77
2022/05/31 04:56:37;;;;;;;4.70;3.50;;;;;;;;;;4938839;28;20453;-77
2022/05/31 04:59:06;;;;;;;3.87;3.53;;;;;;;;;;4952535;28;20476;-77
2022/05/31 05:01:34;;;;;;;4.40;3.80;;;;;;;;;;4936051;29;20428;-77
2022/05/31 05:04:05;;;;;;;3.90;3.60;;;;;;;;;;4936262;29;20539;-77
2022/05/31 05:06:42;;;;;;;3.90;3.43;;;;;;;;;;4932730;28;20462;-77
2022/05/31 05:09:09;;;;;;;4.63;3.77;;;;;;;;;;4950659;28;20933;-77
2022/05/31 05:11:41;;;;;;;4.07;3.30;;;;;;;;;;4939899;28;20454;-77
2022/05/31 05:14:19;;;;;;;3.87;3.50;;;;;;;;;;4955873;28;20481;-75
2022/05/31 05:16:59;;;;;;;4.03;3.57;;;;;;;;;;4953558;28;20454;-75
2022/05/31 05:19:26;;;;;;;4.00;3.60;;;;;;;;;;4938513;28;20494;-77
2022/05/31 05:21:59;;;;;;;4.10;3.50;;;;;;;;;;4944782;28;20450;-77
2022/05/31 05:24:26;;;;;;;3.67;3.37;;;;;;;;;;4971057;28;20473;-77
2022/05/31 05:27:12;;;;;;;4.73;4.33;;;;;;;;;;4970967;28;20418;-77
2022/05/31 05:32:44;;;;;;;5.43;4.23;;;;;;;;;;4929744;28;21009;-78
2022/05/31 05:35:18;;;;;;;4.07;3.67;;;;;;;;;;4952158;28;20977;-76
2022/05/31 05:37:55;;;;;;;4.20;3.80;;;;;;;;;;4958121;28;20692;-76
2022/05/31 05:40:29;;;;;;;4.17;3.80;;;;;;;;;;4957389;28;20885;-73
2022/05/31 05:43:09;;;;;;;3.80;3.50;;;;;;;;;;4958164;28;20597;-76
2022/05/31 05:45:49;;;;;;;4.63;4.07;;;;;;;;;;4942923;28;20540;-77
2022/05/31 05:48:16;;;;;;;3.77;3.47;;;;;;;;;;4974972;28;20460;-76
2022/05/31 05:50:42;;;;;;;6.20;4.10;;;;;;;;;;4954753;28;20489;-76
2022/05/31 05:53:11;;;;;;;4.50;4.10;;;;;;;;;;4974622;28;20431;-76
2022/05/31 05:55:43;;;;;;;4.97;3.80;;;;;;;;;;4965582;28;20482;-76
2022/05/31 05:58:29;;;;;;;4.40;4.00;;;;;;;;;;4971493;28;20465;-76
2022/05/31 06:01:15;;;;;;;5.37;4.03;;;;;;;;;;4974906;28;20415;-76
2022/05/31 06:03:52;;;;;;;4.07;3.70;;;;;;;;;;4973116;28;20495;-76
2022/05/31 06:06:18;;;;;;;5.07;4.13;;;;;;;;;;4956365;28;20478;-76
2022/05/31 06:08:48;;;;;;;4.23;3.83;;;;;;;;;;4956235;28;20450;-75
2022/05/31 06:11:17;;;;;;;4.50;3.90;;;;;;;;;;4973544;28;20427;-74
2022/05/31 06:13:48;;;;;;;4.37;3.87;;;;;;;;;;4971730;28;20482;-75
2022/05/31 06:16:15;;;;;;;4.83;4.10;;;;;;;;;;4970863;28;20972;-74
2022/05/31 06:18:45;;;;;;;6.07;4.43;;;;;;;;;;4957184;28;20460;-74
2022/05/31 06:21:13;;;;;;;4.00;3.60;;;;;;;;;;4972928;28;20813;-75
2022/05/31 06:23:42;;;;;;;4.47;3.80;;;;;;;;;;4957371;28;20814;-75
2022/05/31 06:26:13;;;;;;;6.60;4.20;;;;;;;;;;4973606;28;20453;-75
2022/05/31 06:28:43;;;;;;;6.23;3.63;;;;;;;;;;4969207;28;20938;-75
2022/05/31 06:31:10;;;;;;;5.53;3.90;;;;;;;;;;4954252;28;20439;-75
2022/05/31 06:33:36;;;;;;;4.63;4.03;;;;;;;;;;4956875;28;20480;-75
2022/05/31 06:36:07;;;;;;;4.77;4.37;;;;;;;;;;4956353;28;20454;-75
2022/05/31 06:38:34;;;;;;;4.10;3.70;;;;;;;;;;4963978;28;20812;-76
2022/05/31 06:41:01;;;;;;;4.40;4.00;;;;;;;;;;4973049;28;20446;-75
2022/05/31 06:43:59;;;;;;;4.70;4.30;;;;;;;;;;4975873;28;20438;-75
2022/05/31 06:46:51;;;;;;;4.47;4.07;;;;;;;;;;4973243;28;20826;-75
2022/05/31 06:49:37;;;;;;;4.50;4.10;;;;;;;;;;4974090;28;21043;-76
2022/05/31 06:57:54;;;;;;;4.13;3.83;;;;;;;;;;4956058;28;20711;-74
2022/05/31 07:00:29;;;;;;;4.00;3.60;;;;;;;;;;4956447;28;20454;-77
2022/05/31 07:02:59;;;;;;;5.70;4.50;;;;;;;;;;4970832;28;20458;-74
2022/05/31 07:05:31;;;;;;;4.00;3.60;;;;;;;;;;4938904;28;20446;-74
2022/05/31 07:07:59;;;;;;;4.80;3.10;;;;;;;;;;4974600;28;20449;-75
2022/05/31 07:11:06;;;;;;;4.20;3.40;;;;;;;;;;4915114;29;20425;-75
2022/05/31 07:14:11;;;;;;;3.40;3.10;;;;;;;;;;4914312;29;20495;-75
2022/05/31 07:17:05;;;;;;;3.80;2.93;;;;;;;;;;4937812;28;20545;-75
2022/05/31 07:19:38;;;;;;;3.63;2.90;;;;;;;;;;4973886;28;20941;-75
2022/05/31 07:22:05;;;;;;;3.50;3.20;;;;;;;;;;4941420;28;20450;-75
2022/05/31 07:24:36;;;;;;;3.00;2.80;;;;;;;;;;4940448;28;20464;-76
2022/05/31 07:27:12;;;;;;;4.43;2.57;;;;;;;;;;4930458;28;20510;-76
2022/05/31 07:29:40;;;;;;;4.07;3.17;;;;;;;;;;4929826;28;20493;-76
2022/05/31 07:32:09;;;;;;;6.50;2.60;;;;;;;;;;4946963;28;20937;-76
2022/05/31 07:34:36;;;;;;;3.27;2.93;;;;;;;;;;4963588;28;20950;-76
2022/05/31 07:37:02;;;;;;;3.47;2.70;;;;;;;;;;4928885;29;20455;-76
2022/05/31 07:39:29;;;;;;;3.00;2.70;;;;;;;;;;4923439;28;20455;-76
2022/05/31 07:41:56;;;;;;;3.00;2.70;;;;;;;;;;4939993;28;20466;-76
2022/05/31 07:44:26;;;;;;;3.30;2.87;;;;;;;;;;4953443;28;20450;-76
2022/05/31 07:46:53;;;;;;;2.70;2.50;;;;;;;;;;4938855;28;20462;-76
2022/05/31 07:49:22;;;;;;;3.47;3.17;;;;;;;;;;4953755;28;20824;-76
2022/05/31 07:51:48;;;;;;;3.47;3.00;;;;;;;;;;4972912;28;20454;-76
2022/05/31 07:54:47;;;;;;;4.27;3.00;;;;;;;;;;4971209;28;20481;-76
2022/05/31 08:00:46;;;;;;;4.40;2.80;;;;;;;;;;4970454;28;20453;-76
2022/05/31 08:03:12;;;;;;;7.40;3.30;;;;;;;;;;4971830;28;20470;-76
2022/05/31 08:05:40;;;;;;;3.43;3.13;;;;;;;;;;4972197;28;20443;-76
2022/05/31 08:08:09;;;;;;;4.00;2.90;;;;;;;;;;4969492;28;20450;-76
2022/05/31 08:10:36;;;;;;;5.13;3.67;;;;;;;;;;4973526;28;20536;-76
2022/05/31 08:13:02;;;;;;;3.83;3.47;;;;;;;;;;4972133;28;20545;-76
2022/05/31 08:15:29;;;;;;;3.87;3.30;;;;;;;;;;4965892;28;20470;-76
2022/05/31 08:17:55;;;;;;;2.83;2.63;;;;;;;;;;4971541;28;20430;-76
2022/05/31 08:20:22;;;;;;;7.70;3.30;;;;;;;;;;4970981;28;20442;-76
2022/05/31 08:22:50;;;;;;;3.93;2.60;;;;;;;;;;4972851;28;20880;-77
2022/05/31 08:25:17;;;;;;;5.93;2.70;;;;;;;;;;4969086;28;20451;-77
2022/05/31 08:27:43;;;;;;;3.20;2.90;;;;;;;;;;4956602;28;20458;-77
2022/05/31 08:30:11;;;;;;;3.53;2.67;;;;;;;;;;4972352;28;20533;-77
2022/05/31 08:32:37;;;;;;;3.87;3.10;;;;;;;;;;4971462;28;20443;-77
2022/05/31 08:35:05;;;;;;;3.40;2.43;;;;;;;;;;4972795;28;20470;-77
2022/05/31 08:37:32;;;;;;;2.93;2.60;;;;;;;;;;4969973;28;20465;-77
2022/05/31 08:40:00;;;;;;;2.70;2.50;;;;;;;;;;4970116;28;20489;-77
2022/05/31 08:42:33;;;;;;;2.70;2.50;;;;;;;;;;4972098;28;20959;-77
2022/05/31 08:45:00;;;;;;;2.70;2.50;;;;;;;;;;4956119;28;20441;-77
2022/05/31 08:47:36;;;;;;;3.10;2.53;;;;;;;;;;4970427;28;20466;-77
2022/05/31 08:53:06;;;;;;;2.60;2.30;;;;;;;;;;4972056;28;20423;-77
2022/05/31 08:58:22;;;;;;;2.80;2.60;;;;;;;;;;4966421;28;20450;-77
2022/05/31 09:00:50;;;;;;;2.93;2.73;;;;;;;;;;4970662;28;20907;-77
2022/05/31 09:03:19;;;;;;;3.03;2.73;;;;;;;;;;4971610;28;20421;-77
2022/05/31 09:05:47;;;;;;;2.50;2.30;;;;;;;;;;4970609;28;20450;-77
2022/05/31 09:08:17;;;;;;;4.47;2.60;;;;;;;;;;4971836;28;20937;-77
2022/05/31 09:10:47;;;;;;;3.50;2.70;;;;;;;;;;4969601;28;20455;-77
2022/05/31 09:13:17;;;;;;;2.83;2.63;;;;;;;;;;4970917;28;20537;-77
2022/05/31 09:15:46;;;;;;;3.40;3.10;;;;;;;;;;4969879;28;20485;-77
2022/05/31 09:18:16;;;;;;;2.90;2.70;;;;;;;;;;4954928;28;20860;-77
2022/05/31 09:20:46;;;;;;;2.93;2.63;;;;;;;;;;4972174;28;20450;-77
2022/05/31 09:23:17;;;;;;;3.57;2.80;;;;;;;;;;4971566;28;20489;-77
2022/05/31 09:25:44;;;;;;;3.50;3.10;;;;;;;;;;4971703;28;20825;-77
2022/05/31 09:28:26;;;;;;;3.27;3.07;;;;;;;;;;4969718;28;20447;-77
2022/05/31 09:30:53;;;;;;;3.23;2.90;;;;;;;;;;4967843;28;20470;-77
2022/05/31 09:33:24;;;;;;;3.67;3.37;;;;;;;;;;4967852;28;20517;-77
2022/05/31 09:35:58;;;;;;;2.93;2.57;;;;;;;;;;4968250;28;20510;-77
2022/05/31 09:38:43;;;;;;;3.17;2.50;;;;;;;;;;4971434;28;20430;-77
2022/05/31 09:41:13;;;;;;;3.60;2.30;;;;;;;;;;4969489;28;20548;-77
2022/05/31 09:43:43;;;;;;;2.80;2.60;;;;;;;;;;4970645;28;20459;-77
2022/05/31 09:46:11;;;;;;;3.00;2.80;;;;;;;;;;4953002;28;20468;-77
2022/05/31 09:48:44;;;;;;;2.57;2.40;;;;;;;;;;4971121;28;20457;-77
2022/05/31 09:51:15;;;;;;;2.83;2.63;;;;;;;;;;4967505;28;20861;-77
2022/05/31 09:59:59;;;;;;;3.20;2.40;;;;;;;;;;4968546;28;21028;-77
2022/05/31 10:03:00;;;;;;;6.60;2.70;;;;;;;;;;4982317;28;20458;-80
2022/05/31 10:05:27;;;;;;;3.60;2.77;;;;;;;;;;4970886;28;20440;-80
2022/05/31 10:07:53;;;;;;;2.70;2.30;;;;;;;;;;4965308;28;20450;-80
2022/05/31 10:10:24;;;;;;;2.90;2.63;;;;;;;;;;4972231;28;20434;-80
2022/05/31 10:12:52;;;;;;;2.80;2.60;;;;;;;;;;4971289;28;20443;-80
2022/05/31 10:15:37;;;;;;;3.10;2.80;;;;;;;;;;4971931;28;20463;-80
2022/05/31 10:18:07;;;;;;;3.00;2.80;;;;;;;;;;4955074;28;20544;-80
2022/05/31 10:20:36;;;;;;;3.60;2.73;;;;;;;;;;4950757;29;20460;-80
2022/05/31 10:23:04;;;;;;;2.90;2.70;;;;;;;;;;4967015;28;20450;-80
2022/05/31 10:26:03;;;;;;;5.83;2.97;;;;;;;;;;4952298;28;20449;-78
2022/05/31 10:28:58;;;;;;;3.70;2.73;;;;;;;;;;4970927;28;20450;-77
2022/05/31 10:31:46;;;;;;;3.50;3.20;;;;;;;;;;4957397;28;20540;-77
2022/05/31 10:34:32;;;;;;;3.30;2.30;;;;;;;;;;4973424;28;20517;-77
2022/05/31 10:37:01;;;;;;;4.40;2.50;;;;;;;;;;4973340;28;20454;-77
2022/05/31 10:39:29;;;;;;;2.97;2.70;;;;;;;;;;4970150;28;20454;-77
2022/05/31 10:41:57;;;;;;;3.37;2.10;;;;;;;;;;4973661;28;20458;-77
2022/05/31 10:44:29;;;;;;;4.83;2.97;;;;;;;;;;4972461;28;20456;-77
2022/05/31 10:46:59;;;;;;;4.50;2.40;;;;;;;;;;4973852;28;20794;-77
2022/05/31 10:49:27;;;;;;;2.83;2.63;;;;;;;;;;4971247;28;20901;-77
2022/05/31 10:51:58;;;;;;;2.70;2.50;;;;;;;;;;4970492;28;20474;-77
2022/05/31 10:54:29;;;;;;;2.87;2.67;;;;;;;;;;4973281;28;20832;-77
2022/05/31 10:57:01;;;;;;;3.20;2.63;;;;;;;;;;4974573;28;20474;-77
2022/05/31 10:59:30;;;;;;;2.63;2.43;;;;;;;;;;4974642;28;20567;-76
2022/05/31 11:02:15;;;;;;;3.23;2.93;;;;;;;;;;4972360;28;20505;-78
2022/05/31 11:04:52;;;;;;;3.47;3.27;;;;;;;;;;4973418;28;20442;-79
2022/05/31 11:07:27;;;;;;;4.17;3.63;;;;;;;;;;4972396;28;20454;-77
2022/05/31 11:12:48;;;;;;;7.60;3.80;;;;;;;;;;4983151;28;20939;-77
2022/05/31 11:15:21;;;;;;;4.60;4.20;;;;;;;;;;4970704;28;20978;-77
2022/05/31 11:17:52;;;;;;;4.20;3.80;;;;;;;;;;4970351;28;20489;-77
2022/05/31 11:20:23;;;;;;;4.10;3.70;;;;;;;;;;4973163;28;20423;-77
2022/05/31 11:23:01;;;;;;;4.83;4.43;;;;;;;;;;4954836;28;20534;-77
2022/05/31 11:25:42;;;;;;;4.53;4.13;;;;;;;;;;4971417;28;20453;-77
2022/05/31 11:28:15;;;;;;;8.33;3.87;;;;;;;;;;4931891;28;20561;-77
2022/05/31 11:30:47;;;;;;;4.97;4.20;;;;;;;;;;4970071;28;20501;-77
2022/05/31 11:33:23;;;;;;;4.07;3.77;;;;;;;;;;4972363;28;20884;-77
2022/05/31 11:35:57;;;;;;;5.83;4.10;;;;;;;;;;4971333;28;20581;-79
2022/05/31 11:38:26;;;;;;;5.03;4.33;;;;;;;;;;4972948;28;20451;-80
2022/05/31 11:40:59;;;;;;;4.00;3.60;;;;;;;;;;4972331;28;20457;-80
2022/05/31 11:43:38;;;;;;;5.90;3.80;;;;;;;;;;4974771;28;20423;-80
2022/05/31 11:46:08;;;;;;;6.40;4.40;;;;;;;;;;4972053;28;20454;-80
2022/05/31 11:48:40;;;;;;;4.43;4.03;;;;;;;;;;4973845;28;20546;-80
2022/05/31 11:51:14;;;;;;;4.20;3.80;;;;;;;;;;4936643;29;20554;-80
2022/05/31 11:53:47;;;;;;;3.73;3.43;;;;;;;;;;4937497;29;20869;-80
2022/05/31 11:56:15;;;;;;;3.50;3.20;;;;;;;;;;4936212;29;20490;-80
2022/05/31 11:58:45;;;;;;;3.73;3.43;;;;;;;;;;4951352;29;20810;-80
2022/05/31 12:01:14;;;;;;;3.90;3.50;;;;;;;;;;4953765;29;20571;-80
2022/05/31 12:03:45;;;;;;;4.80;3.50;;;;;;;;;;4953601;29;20546;-80
2022/05/31 12:06:17;;;;;;;5.93;3.53;;;;;;;;;;4951818;29;20692;-81
2022/05/31 12:08:49;;;;;;;3.27;2.97;;;;;;;;;;4933911;29;20515;-79
2022/05/31 12:11:19;;;;;;;3.30;3.00;;;;;;;;;;4948633;29;20454;-79
2022/05/31 12:13:49;;;;;;;4.20;2.87;;;;;;;;;;4953848;28;20452;-79
2022/05/31 12:16:16;;;;;;;3.10;2.90;;;;;;;;;;4947877;29;20562;-79
2022/05/31 12:18:49;;;;;;;2.50;2.30;;;;;;;;;;4910859;29;20448;-79
2022/05/31 12:21:20;;;;;;;4.50;3.10;;;;;;;;;;4923985;29;20515;-79
2022/05/31 12:23:51;;;;;;;4.70;3.13;;;;;;;;;;4928217;29;20452;-79
2022/05/31 12:26:22;;;;;;;3.17;2.80;;;;;;;;;;4938408;29;20480;-82
2022/05/31 12:28:54;;;;;;;3.43;3.10;;;;;;;;;;4928373;29;20486;-78
2022/05/31 12:31:22;;;;;;;3.90;3.40;;;;;;;;;;4920860;29;21058;-79
2022/05/31 12:33:49;;;;;;;4.80;2.90;;;;;;;;;;4922314;29;20450;-79
2022/05/31 12:36:18;;;;;;;3.17;2.73;;;;;;;;;;4938673;29;20472;-79
2022/05/31 12:39:04;;;;;;;3.30;3.00;;;;;;;;;;4912822;29;20455;-80
2022/05/31 12:41:36;;;;;;;3.27;3.00;;;;;;;;;;4932181;28;20447;-79
2022/05/31 12:44:09;;;;;;;3.10;2.80;;;;;;;;;;4916676;29;20443;-79
2022/05/31 12:46:37;;;;;;;2.70;2.50;;;;;;;;;;4933068;29;20452;-79
2022/05/31 12:49:07;;;;;;;2.47;2.27;;;;;;;;;;4947448;28;20984;-78
2022/05/31 12:51:36;;;;;;;2.80;2.60;;;;;;;;;;4961007;28;20951;-79
2022/05/31 12:54:11;;;;;;;3.60;2.80;;;;;;;;;;4945126;28;20442;-79
2022/05/31 12:56:40;;;;;;;3.40;3.10;;;;;;;;;;4948619;28;20493;-79
2022/05/31 12:59:08;;;;;;;2.90;2.67;;;;;;;;;;4949135;28;21001;-79
2022/05/31 13:01:37;;;;;;;2.43;2.23;;;;;;;;;;4973673;28;20451;-79
2022/05/31 13:04:09;;;;;;;2.90;2.57;;;;;;;;;;4948955;28;20450;-79
2022/05/31 13:06:38;;;;;;;4.33;2.97;;;;;;;;;;4930312;28;20467;-79
2022/05/31 13:09:06;;;;;;;2.87;2.67;;;;;;;;;;4963681;28;20442;-79
2022/05/31 13:20:44;;;;;;;3.63;3.07;;;;;;;;;;4951159;28;20628;-76
2022/05/31 13:23:15;;;;;;;4.00;2.60;;;;;;;;;;4951292;28;20454;-77
2022/05/31 13:25:44;;;;;;;2.47;2.27;;;;;;;;;;4951252;28;20797;-77
2022/05/31 13:28:22;;;;;;;3.03;2.57;;;;;;;;;;4951236;28;20443;-77
2022/05/31 13:30:49;;;;;;;3.00;2.70;;;;;;;;;;4935344;28;20461;-75
2022/05/31 13:33:17;;;;;;;7.67;3.10;;;;;;;;;;4950194;28;21005;-75
2022/05/31 13:35:44;;;;;;;3.00;2.70;;;;;;;;;;4968903;28;20486;-77
2022/05/31 13:38:13;;;;;;;3.87;2.73;;;;;;;;;;4968753;28;20469;-74
2022/05/31 13:40:43;;;;;;;2.77;2.57;;;;;;;;;;4953459;28;20566;-77
2022/05/31 13:43:16;;;;;;;3.63;2.83;;;;;;;;;;4953757;28;20442;-77
2022/05/31 13:45:44;;;;;;;2.73;2.20;;;;;;;;;;4954682;28;20454;-74
2022/05/31 13:48:11;;;;;;;5.03;2.87;;;;;;;;;;4954073;28;20526;-75
2022/05/31 13:50:39;;;;;;;3.20;2.40;;;;;;;;;;4962087;28;20914;-76
2022/05/31 13:53:06;;;;;;;2.63;2.43;;;;;;;;;;4970207;28;20483;-75
2022/05/31 13:55:33;;;;;;;5.50;2.40;;;;;;;;;;4974412;28;20442;-75
2022/05/31 13:58:02;;;;;;;2.23;2.00;;;;;;;;;;4975451;28;20776;-75
2022/05/31 14:00:41;;;;;;;2.20;2.00;;;;;;;;;;4974811;28;20442;-76
2022/05/31 14:03:13;;;;;;;4.10;2.40;;;;;;;;;;4974317;28;20438;-75
2022/05/31 14:05:49;;;;;;;3.37;2.83;;;;;;;;;;4973278;28;20902;-75
2022/05/31 14:08:21;;;;;;;3.17;1.93;;;;;;;;;;4961111;28;20446;-75
2022/05/31 14:10:50;;;;;;;3.10;2.80;;;;;;;;;;4974799;28;20458;-75
2022/05/31 14:13:20;;;;;;;4.53;2.53;;;;;;;;;;4975201;28;20549;-75
2022/05/31 14:15:47;;;;;;;3.50;2.60;;;;;;;;;;4974027;28;20846;-75
2022/05/31 14:18:16;;;;;;;2.73;2.50;;;;;;;;;;4974013;28;20541;-75
2022/05/31 14:20:44;;;;;;;3.93;2.40;;;;;;;;;;4972938;28;20454;-75
2022/05/31 14:23:14;;;;;;;3.23;2.30;;;;;;;;;;4955727;29;20462;-76
2022/05/31 14:25:42;;;;;;;3.53;2.57;;;;;;;;;;4961154;28;20443;-75
2022/05/31 14:28:15;;;;;;;6.03;2.60;;;;;;;;;;4955611;28;20435;-75
2022/05/31 14:30:50;;;;;;;5.30;2.70;;;;;;;;;;4973433;28;20457;-76
2022/05/31 14:33:18;;;;;;;3.27;2.73;;;;;;;;;;4971813;28;20530;-75
2022/05/31 14:35:48;;;;;;;2.67;2.30;;;;;;;;;;4974001;28;20549;-75
2022/05/31 14:38:18;;;;;;;3.20;2.53;;;;;;;;;;4973006;28;20552;-76
2022/05/31 14:40:50;;;;;;;3.10;2.80;;;;;;;;;;4970579;28;20457;-75
2022/05/31 14:43:27;;;;;;;3.43;2.77;;;;;;;;;;4963345;28;20445;-75
2022/05/31 14:45:55;;;;;;;3.67;2.80;;;;;;;;;;4969102;28;20458;-76
2022/05/31 14:48:43;;;;;;;3.33;2.73;;;;;;;;;;4975538;28;20453;-75
2022/05/31 14:51:11;;;;;;;3.00;2.80;;;;;;;;;;4967717;28;20450;-75
2022/05/31 14:53:42;;;;;;;3.57;3.10;;;;;;;;;;4973805;28;20458;-76
2022/05/31 14:56:19;;;;;;;3.03;2.70;;;;;;;;;;4954251;29;20512;-76
2022/05/31 14:58:47;;;;;;;5.30;2.50;;;;;;;;;;4953980;29;20443;-75
2022/05/31 15:01:17;;;;;;;3.83;2.70;;;;;;;;;;4953560;29;20451;-76
2022/05/31 15:03:45;;;;;;;3.07;2.77;;;;;;;;;;4966574;28;20462;-75
2022/05/31 15:06:12;;;;;;;3.03;2.73;;;;;;;;;;4974017;28;20454;-75
2022/05/31 15:08:40;;;;;;;2.70;2.50;;;;;;;;;;4971445;28;20533;-76
2022/05/31 15:19:34;;;;;;;2.87;2.33;;;;;;;;;;4970683;28;20601;-75
2022/05/31 15:22:02;;;;;;;3.27;2.17;;;;;;;;;;4973349;28;20466;-76
2022/05/31 15:24:31;;;;;;;3.10;2.50;;;;;;;;;;4969147;28;20811;-76
2022/05/31 15:26:58;;;;;;;4.80;2.80;;;;;;;;;;4988062;28;20925;-76
2022/05/31 15:29:24;;;;;;;3.30;2.50;;;;;;;;;;4968765;28;20976;-76
2022/05/31 15:31:52;;;;;;;3.00;2.10;;;;;;;;;;4972470;28;20557;-76
2022/05/31 15:34:19;;;;;;;2.43;2.23;;;;;;;;;;4963992;28;20462;-77
2022/05/31 15:36:49;;;;;;;3.20;2.37;;;;;;;;;;4967422;28;20729;-76
2022/05/31 15:39:17;;;;;;;2.70;2.43;;;;;;;;;;4985613;28;20458;-76
2022/05/31 15:41:44;;;;;;;3.73;2.27;;;;;;;;;;4971041;28;20454;-76
2022/05/31 15:44:14;;;;;;;4.40;2.97;;;;;;;;;;4972556;28;20518;-76
2022/05/31 15:46:44;;;;;;;2.57;2.33;;;;;;;;;;4969844;28;20838;-76
2022/05/31 15:52:13;;;;;;;3.23;2.70;;;;;;;;;;4878178;29;20469;-74
2022/05/31 15:54:43;;;;;;;2.60;2.40;;;;;;;;;;4892340;29;20522;-76
2022/05/31 15:57:11;;;;;;;2.57;2.37;;;;;;;;;;4895690;29;20545;-73
2022/05/31 15:59:42;;;;;;;3.60;2.30;;;;;;;;;;4889885;29;20874;-76
2022/05/31 16:02:09;;;;;;;2.57;2.37;;;;;;;;;;4896217;29;20481;-74
2022/05/31 16:04:36;;;;;;;4.53;2.50;;;;;;;;;;4896724;29;20452;-74